Desloge, Missouri
Current Conditions -  °F | °C
As of 1:55 PM on Monday 24 Nov 2014 (Local Time) from KFAM Reporting Station
Broken Clouds Broken Clouds  
Wind Chill: 40°   Ceiling: 5000
Heat Index: 46°   Visibility: 10mi
Dew Point: 27°   Wind: 16mph
Humidity: 46%   Direction: 220°SW
Pressure: 29.77"   Gusts: 24mph
Location:  37.8386°N, 90.5648°W
Report Text: KFAM 241955Z AUTO 22014G21KT 10SM BKN050 08/M03 A2977 RMK AO1
Loading
Personal Weather Stations






























Interactive Weather Map New forecast layout! Learn more

10-Day Weather Forecast

Advertisements
Track Severe Weather on mobile